sensor_id;sensor_type;location;lat;lon;timestamp;temperature;humidity
71994;DHT22;59861;50.268;8.648;2023-02-01T00:02:11;15.00;55.10
71994;DHT22;59861;50.268;8.648;2023-02-01T00:04:38;15.00;55.00
71994;DHT22;59861;50.268;8.648;2023-02-01T00:07:05;15.00;55.00
71994;DHT22;59861;50.268;8.648;2023-02-01T00:09:32;15.10;55.00
71994;DHT22;59861;50.268;8.648;2023-02-01T00:11:59;15.00;55.00
71994;DHT22;59861;50.268;8.648;2023-02-01T00:14:27;15.00;54.90
71994;DHT22;59861;50.268;8.648;2023-02-01T00:16:54;15.10;55.00
71994;DHT22;59861;50.268;8.648;2023-02-01T00:19:21;15.00;55.00
71994;DHT22;59861;50.268;8.648;2023-02-01T00:21:48;15.00;55.20
71994;DHT22;59861;50.268;8.648;2023-02-01T00:24:15;14.90;55.30
71994;DHT22;59861;50.268;8.648;2023-02-01T00:26:43;14.90;55.40
71994;DHT22;59861;50.268;8.648;2023-02-01T00:29:14;14.90;55.60
71994;DHT22;59861;50.268;8.648;2023-02-01T00:31:41;14.80;55.60
71994;DHT22;59861;50.268;8.648;2023-02-01T00:34:09;14.80;56.30
71994;DHT22;59861;50.268;8.648;2023-02-01T00:36:37;14.80;55.70
71994;DHT22;59861;50.268;8.648;2023-02-01T00:39:04;14.80;55.60
71994;DHT22;59861;50.268;8.648;2023-02-01T00:41:30;14.80;55.60
71994;DHT22;59861;50.268;8.648;2023-02-01T00:43:57;14.80;56.40
71994;DHT22;59861;50.268;8.648;2023-02-01T00:46:24;14.80;55.60
71994;DHT22;59861;50.268;8.648;2023-02-01T00:48:51;14.80;55.70
71994;DHT22;59861;50.268;8.648;2023-02-01T00:51:23;14.80;55.70
71994;DHT22;59861;50.268;8.648;2023-02-01T00:53:46;14.80;55.60
71994;DHT22;59861;50.268;8.648;2023-02-01T00:56:13;14.80;55.60
71994;DHT22;59861;50.268;8.648;2023-02-01T00:58:40;14.80;55.60
71994;DHT22;59861;50.268;8.648;2023-02-01T01:01:08;14.80;55.60
71994;DHT22;59861;50.268;8.648;2023-02-01T01:03:37;14.80;55.60
71994;DHT22;59861;50.268;8.648;2023-02-01T01:06:05;14.80;55.60
71994;DHT22;59861;50.268;8.648;2023-02-01T01:08:32;14.80;55.40
71994;DHT22;59861;50.268;8.648;2023-02-01T01:11:04;14.90;55.40
71994;DHT22;59861;50.268;8.648;2023-02-01T01:13:28;14.90;55.40
71994;DHT22;59861;50.268;8.648;2023-02-01T01:15:55;14.90;55.40
71994;DHT22;59861;50.268;8.648;2023-02-01T01:18:21;14.90;55.30
71994;DHT22;59861;50.268;8.648;2023-02-01T01:20:48;14.90;56.00
71994;DHT22;59861;50.268;8.648;2023-02-01T01:23:15;14.90;55.40
71994;DHT22;59861;50.268;8.648;2023-02-01T01:25:42;14.90;55.30
71994;DHT22;59861;50.268;8.648;2023-02-01T01:28:09;14.90;55.40
71994;DHT22;59861;50.268;8.648;2023-02-01T01:30:35;14.90;55.20
71994;DHT22;59861;50.268;8.648;2023-02-01T01:33:02;14.90;55.30
71994;DHT22;59861;50.268;8.648;2023-02-01T01:35:29;14.90;55.30
71994;DHT22;59861;50.268;8.648;2023-02-01T01:37:56;14.90;55.40
71994;DHT22;59861;50.268;8.648;2023-02-01T01:40:23;14.80;55.30
71994;DHT22;59861;50.268;8.648;2023-02-01T01:42:50;14.80;55.20
71994;DHT22;59861;50.268;8.648;2023-02-01T01:47:56;14.80;55.20
71994;DHT22;59861;50.268;8.648;2023-02-01T01:50:19;14.90;55.20
71994;DHT22;59861;50.268;8.648;2023-02-01T01:52:46;14.90;55.20
71994;DHT22;59861;50.268;8.648;2023-02-01T01:55:15;14.80;55.10
71994;DHT22;59861;50.268;8.648;2023-02-01T01:57:44;14.80;55.10
71994;DHT22;59861;50.268;8.648;2023-02-01T02:00:12;14.80;55.10
71994;DHT22;59861;50.268;8.648;2023-02-01T02:02:40;14.80;55.20
71994;DHT22;59861;50.268;8.648;2023-02-01T02:05:08;14.80;55.40
71994;DHT22;59861;50.268;8.648;2023-02-01T02:07:36;14.80;55.20
71994;DHT22;59861;50.268;8.648;2023-02-01T02:10:04;14.80;55.20
71994;DHT22;59861;50.268;8.648;2023-02-01T02:12:31;14.80;55.20
71994;DHT22;59861;50.268;8.648;2023-02-01T02:14:58;14.80;55.20
71994;DHT22;59861;50.268;8.648;2023-02-01T02:31:07;14.90;54.80
71994;DHT22;59861;50.268;8.648;2023-02-01T02:38:53;14.80;54.90
71994;DHT22;59861;50.268;8.648;2023-02-01T02:41:25;14.90;54.90
71994;DHT22;59861;50.268;8.648;2023-02-01T02:44:08;14.90;55.00
71994;DHT22;59861;50.268;8.648;2023-02-01T02:46:52;14.80;55.10
71994;DHT22;59861;50.268;8.648;2023-02-01T02:49:43;14.70;55.20
71994;DHT22;59861;50.268;8.648;2023-02-01T02:52:12;14.70;55.40
71994;DHT22;59861;50.268;8.648;2023-02-01T02:54:58;14.60;56.00
71994;DHT22;59861;50.268;8.648;2023-02-01T02:57:26;14.60;55.60
71994;DHT22;59861;50.268;8.648;2023-02-01T03:00:14;14.60;55.60
71994;DHT22;59861;50.268;8.648;2023-02-01T03:02:58;14.60;55.70
71994;DHT22;59861;50.268;8.648;2023-02-01T03:05:44;14.60;55.70
71994;DHT22;59861;50.268;8.648;2023-02-01T03:08:15;14.60;55.70
71994;DHT22;59861;50.268;8.648;2023-02-01T03:13:12;14.60;55.60
71994;DHT22;59861;50.268;8.648;2023-02-01T03:15:53;14.60;55.70
71994;DHT22;59861;50.268;8.648;2023-02-01T03:18:11;14.60;55.60
71994;DHT22;59861;50.268;8.648;2023-02-01T03:20:36;14.60;55.70
71994;DHT22;59861;50.268;8.648;2023-02-01T03:23:04;14.60;55.60
71994;DHT22;59861;50.268;8.648;2023-02-01T03:25:32;14.60;55.60
71994;DHT22;59861;50.268;8.648;2023-02-01T03:28:03;14.60;55.60
71994;DHT22;59861;50.268;8.648;2023-02-01T03:30:33;14.60;55.60
71994;DHT22;59861;50.268;8.648;2023-02-01T03:32:59;14.70;55.50
71994;DHT22;59861;50.268;8.648;2023-02-01T03:38:17;14.60;55.50
71994;DHT22;59861;50.268;8.648;2023-02-01T03:40:42;14.70;55.50
71994;DHT22;59861;50.268;8.648;2023-02-01T03:43:12;14.60;55.40
71994;DHT22;59861;50.268;8.648;2023-02-01T03:45:41;14.70;55.40
71994;DHT22;59861;50.268;8.648;2023-02-01T03:48:08;14.70;55.50
71994;DHT22;59861;50.268;8.648;2023-02-01T03:50:36;14.70;55.30
71994;DHT22;59861;50.268;8.648;2023-02-01T03:53:05;14.70;55.30
71994;DHT22;59861;50.268;8.648;2023-02-01T03:55:32;14.70;55.30
71994;DHT22;59861;50.268;8.648;2023-02-01T03:58:20;14.70;55.20
71994;DHT22;59861;50.268;8.648;2023-02-01T04:00:50;14.70;55.20
71994;DHT22;59861;50.268;8.648;2023-02-01T04:03:14;14.70;55.20
71994;DHT22;59861;50.268;8.648;2023-02-01T04:05:41;14.70;55.20
71994;DHT22;59861;50.268;8.648;2023-02-01T04:08:08;14.70;55.10
71994;DHT22;59861;50.268;8.648;2023-02-01T04:10:34;14.70;55.00
71994;DHT22;59861;50.268;8.648;2023-02-01T04:13:01;14.70;55.00
71994;DHT22;59861;50.268;8.648;2023-02-01T04:15:28;14.70;55.00
71994;DHT22;59861;50.268;8.648;2023-02-01T04:17:55;14.70;55.00
71994;DHT22;59861;50.268;8.648;2023-02-01T04:20:22;14.70;54.90
71994;DHT22;59861;50.268;8.648;2023-02-01T04:22:48;14.70;55.00
71994;DHT22;59861;50.268;8.648;2023-02-01T04:25:15;14.70;54.90
71994;DHT22;59861;50.268;8.648;2023-02-01T04:27:43;14.70;55.50
71994;DHT22;59861;50.268;8.648;2023-02-01T04:30:10;14.70;54.90
71994;DHT22;59861;50.268;8.648;2023-02-01T04:32:37;14.70;54.90
71994;DHT22;59861;50.268;8.648;2023-02-01T04:35:04;14.70;55.00
71994;DHT22;59861;50.268;8.648;2023-02-01T04:37:31;14.70;55.00
71994;DHT22;59861;50.268;8.648;2023-02-01T04:39:58;14.70;54.90
71994;DHT22;59861;50.268;8.648;2023-02-01T04:42:25;14.70;55.00
71994;DHT22;59861;50.268;8.648;2023-02-01T04:44:52;14.70;55.00
71994;DHT22;59861;50.268;8.648;2023-02-01T04:47:19;14.70;55.00
71994;DHT22;59861;50.268;8.648;2023-02-01T04:49:45;14.70;55.00
71994;DHT22;59861;50.268;8.648;2023-02-01T04:52:12;14.70;55.10
71994;DHT22;59861;50.268;8.648;2023-02-01T04:54:39;14.70;55.00
71994;DHT22;59861;50.268;8.648;2023-02-01T04:57:06;14.70;55.00
71994;DHT22;59861;50.268;8.648;2023-02-01T04:59:32;14.70;55.10
71994;DHT22;59861;50.268;8.648;2023-02-01T05:01:59;14.60;55.20
71994;DHT22;59861;50.268;8.648;2023-02-01T05:04:26;14.60;55.30
71994;DHT22;59861;50.268;8.648;2023-02-01T05:06:53;14.60;55.40
71994;DHT22;59861;50.268;8.648;2023-02-01T05:09:20;14.50;55.50
71994;DHT22;59861;50.268;8.648;2023-02-01T05:11:47;14.50;55.60
71994;DHT22;59861;50.268;8.648;2023-02-01T05:14:32;14.50;55.70
71994;DHT22;59861;50.268;8.648;2023-02-01T05:16:59;14.50;55.70
71994;DHT22;59861;50.268;8.648;2023-02-01T05:19:26;14.50;55.70
71994;DHT22;59861;50.268;8.648;2023-02-01T05:21:53;14.50;55.80
71994;DHT22;59861;50.268;8.648;2023-02-01T05:24:19;14.50;55.90
71994;DHT22;59861;50.268;8.648;2023-02-01T05:26:47;14.50;55.90
71994;DHT22;59861;50.268;8.648;2023-02-01T05:29:14;14.50;55.90
71994;DHT22;59861;50.268;8.648;2023-02-01T05:31:41;14.50;55.90
71994;DHT22;59861;50.268;8.648;2023-02-01T05:34:08;14.50;56.00
71994;DHT22;59861;50.268;8.648;2023-02-01T05:36:35;14.50;56.00
71994;DHT22;59861;50.268;8.648;2023-02-01T05:39:02;14.50;56.00
71994;DHT22;59861;50.268;8.648;2023-02-01T05:41:29;14.50;56.00
71994;DHT22;59861;50.268;8.648;2023-02-01T05:43:55;14.50;56.00
71994;DHT22;59861;50.268;8.648;2023-02-01T05:46:22;14.50;56.00
71994;DHT22;59861;50.268;8.648;2023-02-01T05:48:49;14.50;56.00
71994;DHT22;59861;50.268;8.648;2023-02-01T05:51:16;14.50;56.10
71994;DHT22;59861;50.268;8.648;2023-02-01T05:53:43;14.50;56.10
71994;DHT22;59861;50.268;8.648;2023-02-01T05:56:09;14.50;56.10
71994;DHT22;59861;50.268;8.648;2023-02-01T05:58:36;14.50;56.30
71994;DHT22;59861;50.268;8.648;2023-02-01T06:01:03;14.50;56.30
71994;DHT22;59861;50.268;8.648;2023-02-01T06:03:30;14.50;56.30
71994;DHT22;59861;50.268;8.648;2023-02-01T06:05:57;14.60;55.90
71994;DHT22;59861;50.268;8.648;2023-02-01T06:08:24;14.60;56.30
71994;DHT22;59861;50.268;8.648;2023-02-01T06:10:56;14.50;56.30
71994;DHT22;59861;50.268;8.648;2023-02-01T06:13:19;14.60;56.90
71994;DHT22;59861;50.268;8.648;2023-02-01T06:15:46;14.50;56.30
71994;DHT22;59861;50.268;8.648;2023-02-01T06:18:13;14.60;56.30
71994;DHT22;59861;50.268;8.648;2023-02-01T06:20:41;14.60;56.30
71994;DHT22;59861;50.268;8.648;2023-02-01T06:23:08;14.50;56.30
71994;DHT22;59861;50.268;8.648;2023-02-01T06:25:35;14.50;56.30
71994;DHT22;59861;50.268;8.648;2023-02-01T06:28:01;14.50;56.30
71994;DHT22;59861;50.268;8.648;2023-02-01T06:30:30;14.50;56.30
71994;DHT22;59861;50.268;8.648;2023-02-01T06:32:57;14.50;56.30
71994;DHT22;59861;50.268;8.648;2023-02-01T06:35:24;14.60;56.30
71994;DHT22;59861;50.268;8.648;2023-02-01T06:37:51;14.50;56.20
71994;DHT22;59861;50.268;8.648;2023-02-01T06:40:18;14.60;56.30
71994;DHT22;59861;50.268;8.648;2023-02-01T06:42:45;14.60;56.20
71994;DHT22;59861;50.268;8.648;2023-02-01T06:45:13;14.60;56.30
71994;DHT22;59861;50.268;8.648;2023-02-01T06:47:40;14.60;56.20
71994;DHT22;59861;50.268;8.648;2023-02-01T06:50:08;14.60;56.20
71994;DHT22;59861;50.268;8.648;2023-02-01T06:52:35;14.60;56.30
71994;DHT22;59861;50.268;8.648;2023-02-01T06:55:02;14.60;56.10
71994;DHT22;59861;50.268;8.648;2023-02-01T06:57:28;14.60;56.10
71994;DHT22;59861;50.268;8.648;2023-02-01T06:59:56;14.60;56.10
71994;DHT22;59861;50.268;8.648;2023-02-01T07:02:24;14.60;56.10
71994;DHT22;59861;50.268;8.648;2023-02-01T07:04:51;14.60;56.10
71994;DHT22;59861;50.268;8.648;2023-02-01T07:07:17;14.60;56.10
71994;DHT22;59861;50.268;8.648;2023-02-01T07:09:45;14.60;56.00
71994;DHT22;59861;50.268;8.648;2023-02-01T07:12:12;14.60;56.00
71994;DHT22;59861;50.268;8.648;2023-02-01T07:14:39;14.60;56.00
71994;DHT22;59861;50.268;8.648;2023-02-01T07:17:06;14.60;56.00
71994;DHT22;59861;50.268;8.648;2023-02-01T07:19:32;14.60;56.10
71994;DHT22;59861;50.268;8.648;2023-02-01T07:21:59;14.70;55.90
71994;DHT22;59861;50.268;8.648;2023-02-01T07:24:26;14.70;55.90
71994;DHT22;59861;50.268;8.648;2023-02-01T07:26:53;14.70;55.80
71994;DHT22;59861;50.268;8.648;2023-02-01T07:29:20;14.70;55.80
71994;DHT22;59861;50.268;8.648;2023-02-01T07:31:46;14.70;55.80
71994;DHT22;59861;50.268;8.648;2023-02-01T07:34:13;14.60;55.70
71994;DHT22;59861;50.268;8.648;2023-02-01T07:36:40;14.70;55.80
71994;DHT22;59861;50.268;8.648;2023-02-01T07:39:07;14.70;55.70
71994;DHT22;59861;50.268;8.648;2023-02-01T07:41:34;14.70;55.70
71994;DHT22;59861;50.268;8.648;2023-02-01T07:44:01;14.70;55.70
71994;DHT22;59861;50.268;8.648;2023-02-01T07:46:28;14.70;55.70
71994;DHT22;59861;50.268;8.648;2023-02-01T07:48:55;14.70;55.70
71994;DHT22;59861;50.268;8.648;2023-02-01T07:51:21;14.70;55.70
71994;DHT22;59861;50.268;8.648;2023-02-01T07:53:48;14.70;55.60
71994;DHT22;59861;50.268;8.648;2023-02-01T07:56:16;14.70;55.60
71994;DHT22;59861;50.268;8.648;2023-02-01T07:58:46;14.70;55.60
71994;DHT22;59861;50.268;8.648;2023-02-01T08:01:16;14.70;55.60
71994;DHT22;59861;50.268;8.648;2023-02-01T08:03:49;14.70;55.60
71994;DHT22;59861;50.268;8.648;2023-02-01T08:06:16;14.70;55.50
71994;DHT22;59861;50.268;8.648;2023-02-01T08:08:45;14.70;55.50
71994;DHT22;59861;50.268;8.648;2023-02-01T08:11:12;14.70;55.60
71994;DHT22;59861;50.268;8.648;2023-02-01T08:13:40;14.70;55.50
71994;DHT22;59861;50.268;8.648;2023-02-01T08:16:07;14.70;55.50
71994;DHT22;59861;50.268;8.648;2023-02-01T08:18:35;14.70;55.50
71994;DHT22;59861;50.268;8.648;2023-02-01T08:21:02;14.70;55.40
71994;DHT22;59861;50.268;8.648;2023-02-01T08:23:29;14.70;56.20
71994;DHT22;59861;50.268;8.648;2023-02-01T08:28:38;14.60;55.70
71994;DHT22;59861;50.268;8.648;2023-02-01T08:31:08;14.60;55.90
71994;DHT22;59861;50.268;8.648;2023-02-01T08:33:35;14.60;56.00
71994;DHT22;59861;50.268;8.648;2023-02-01T08:36:06;14.50;56.00
71994;DHT22;59861;50.268;8.648;2023-02-01T08:38:38;14.60;56.20
71994;DHT22;59861;50.268;8.648;2023-02-01T08:41:05;14.50;56.00
71994;DHT22;59861;50.268;8.648;2023-02-01T08:43:32;14.50;56.10
71994;DHT22;59861;50.268;8.648;2023-02-01T08:45:59;14.50;56.00
71994;DHT22;59861;50.268;8.648;2023-02-01T08:48:26;14.60;56.10
71994;DHT22;59861;50.268;8.648;2023-02-01T08:50:53;14.50;56.00
71994;DHT22;59861;50.268;8.648;2023-02-01T08:53:19;14.50;56.00
71994;DHT22;59861;50.268;8.648;2023-02-01T08:55:46;14.60;56.00
71994;DHT22;59861;50.268;8.648;2023-02-01T08:58:13;14.60;56.00
71994;DHT22;59861;50.268;8.648;2023-02-01T09:00:42;14.60;56.00
71994;DHT22;59861;50.268;8.648;2023-02-01T09:03:11;14.60;55.90
71994;DHT22;59861;50.268;8.648;2023-02-01T09:05:38;14.60;55.90
71994;DHT22;59861;50.268;8.648;2023-02-01T09:08:05;14.60;55.80
71994;DHT22;59861;50.268;8.648;2023-02-01T09:10:32;14.70;55.90
71994;DHT22;59861;50.268;8.648;2023-02-01T09:12:59;14.70;55.80
71994;DHT22;59861;50.268;8.648;2023-02-01T09:15:25;14.70;55.90
71994;DHT22;59861;50.268;8.648;2023-02-01T09:17:52;14.70;55.80
71994;DHT22;59861;50.268;8.648;2023-02-01T09:20:19;14.70;55.80
71994;DHT22;59861;50.268;8.648;2023-02-01T09:22:47;14.70;55.70
71994;DHT22;59861;50.268;8.648;2023-02-01T09:25:14;14.80;55.60
71994;DHT22;59861;50.268;8.648;2023-02-01T09:27:41;14.80;55.60
71994;DHT22;59861;50.268;8.648;2023-02-01T09:30:08;14.80;55.60
71994;DHT22;59861;50.268;8.648;2023-02-01T09:32:35;14.80;55.50
71994;DHT22;59861;50.268;8.648;2023-02-01T09:35:02;14.80;55.40
71994;DHT22;59861;50.268;8.648;2023-02-01T09:37:29;14.80;55.60
71994;DHT22;59861;50.268;8.648;2023-02-01T09:39:56;14.80;55.50
71994;DHT22;59861;50.268;8.648;2023-02-01T09:47:46;14.80;55.40
71994;DHT22;59861;50.268;8.648;2023-02-01T09:50:13;14.80;55.30
71994;DHT22;59861;50.268;8.648;2023-02-01T09:52:45;14.80;55.30
71994;DHT22;59861;50.268;8.648;2023-02-01T09:55:14;14.80;55.30
71994;DHT22;59861;50.268;8.648;2023-02-01T09:57:46;14.80;55.30
71994;DHT22;59861;50.268;8.648;2023-02-01T10:00:22;14.80;55.70
71994;DHT22;59861;50.268;8.648;2023-02-01T10:02:44;14.90;55.20
71994;DHT22;59861;50.268;8.648;2023-02-01T10:05:19;14.80;55.20
71994;DHT22;59861;50.268;8.648;2023-02-01T10:10:20;14.80;55.50
71994;DHT22;59861;50.268;8.648;2023-02-01T10:12:49;14.80;55.40
71994;DHT22;59861;50.268;8.648;2023-02-01T10:18:06;14.90;55.30
71994;DHT22;59861;50.268;8.648;2023-02-01T10:20:52;14.90;55.20
71994;DHT22;59861;50.268;8.648;2023-02-01T10:26:00;14.90;55.20
71994;DHT22;59861;50.268;8.648;2023-02-01T10:28:22;14.90;55.10
71994;DHT22;59861;50.268;8.648;2023-02-01T10:30:51;14.90;55.10
71994;DHT22;59861;50.268;8.648;2023-02-01T10:35:47;14.90;55.20
71994;DHT22;59861;50.268;8.648;2023-02-01T10:38:24;14.90;55.20
71994;DHT22;59861;50.268;8.648;2023-02-01T10:40:46;14.90;55.20
71994;DHT22;59861;50.268;8.648;2023-02-01T10:43:13;14.90;55.20
71994;DHT22;59861;50.268;8.648;2023-02-01T10:45:40;14.90;55.20
71994;DHT22;59861;50.268;8.648;2023-02-01T10:48:08;14.90;55.30
71994;DHT22;59861;50.268;8.648;2023-02-01T10:50:41;14.90;56.00
71994;DHT22;59861;50.268;8.648;2023-02-01T10:53:08;14.90;55.40
71994;DHT22;59861;50.268;8.648;2023-02-01T10:55:35;14.90;55.40
71994;DHT22;59861;50.268;8.648;2023-02-01T10:58:03;14.90;55.40
71994;DHT22;59861;50.268;8.648;2023-02-01T11:00:44;15.00;55.30
71994;DHT22;59861;50.268;8.648;2023-02-01T11:03:21;15.00;55.30
71994;DHT22;59861;50.268;8.648;2023-02-01T11:05:48;15.00;55.30
71994;DHT22;59861;50.268;8.648;2023-02-01T11:08:15;15.00;55.30
71994;DHT22;59861;50.268;8.648;2023-02-01T11:10:43;15.00;55.20
71994;DHT22;59861;50.268;8.648;2023-02-01T11:13:14;15.00;55.30
71994;DHT22;59861;50.268;8.648;2023-02-01T11:15:38;15.00;55.20
71994;DHT22;59861;50.268;8.648;2023-02-01T11:18:18;15.00;55.30
71994;DHT22;59861;50.268;8.648;2023-02-01T11:20:45;15.00;55.30
71994;DHT22;59861;50.268;8.648;2023-02-01T11:23:15;15.00;56.00
71994;DHT22;59861;50.268;8.648;2023-02-01T11:25:49;15.00;55.30
71994;DHT22;59861;50.268;8.648;2023-02-01T11:28:13;14.90;55.30
71994;DHT22;59861;50.268;8.648;2023-02-01T11:30:41;15.00;55.10
71994;DHT22;59861;50.268;8.648;2023-02-01T11:33:14;15.00;55.30
71994;DHT22;59861;50.268;8.648;2023-02-01T11:35:41;15.00;55.30
71994;DHT22;59861;50.268;8.648;2023-02-01T11:38:18;15.00;55.20
71994;DHT22;59861;50.268;8.648;2023-02-01T11:40:40;15.00;55.10
71994;DHT22;59861;50.268;8.648;2023-02-01T11:45:35;15.00;55.20
71994;DHT22;59861;50.268;8.648;2023-02-01T11:48:07;15.00;55.20
71994;DHT22;59861;50.268;8.648;2023-02-01T11:50:45;15.00;55.20
71994;DHT22;59861;50.268;8.648;2023-02-01T11:53:20;15.00;55.10
71994;DHT22;59861;50.268;8.648;2023-02-01T11:58:33;15.00;55.20
71994;DHT22;59861;50.268;8.648;2023-02-01T12:03:31;15.00;55.10
71994;DHT22;59861;50.268;8.648;2023-02-01T12:11:10;15.00;55.20
71994;DHT22;59861;50.268;8.648;2023-02-01T12:13:36;15.00;55.10
71994;DHT22;59861;50.268;8.648;2023-02-01T12:16:03;15.00;55.10
71994;DHT22;59861;50.268;8.648;2023-02-01T12:21:21;15.00;55.10
71994;DHT22;59861;50.268;8.648;2023-02-01T12:28:59;14.90;55.20
71994;DHT22;59861;50.268;8.648;2023-02-01T12:32:09;15.00;55.30
71994;DHT22;59861;50.268;8.648;2023-02-01T12:36:54;15.00;55.30
71994;DHT22;59861;50.268;8.648;2023-02-01T12:39:39;15.00;55.30
71994;DHT22;59861;50.268;8.648;2023-02-01T12:42:13;15.00;55.90
71994;DHT22;59861;50.268;8.648;2023-02-01T12:44:42;15.00;55.20
71994;DHT22;59861;50.268;8.648;2023-02-01T12:47:43;15.00;55.20
71994;DHT22;59861;50.268;8.648;2023-02-01T12:49:57;15.00;55.20
71994;DHT22;59861;50.268;8.648;2023-02-01T12:52:39;15.00;55.20
71994;DHT22;59861;50.268;8.648;2023-02-01T12:55:15;15.00;55.20
71994;DHT22;59861;50.268;8.648;2023-02-01T12:57:40;15.00;55.20
71994;DHT22;59861;50.268;8.648;2023-02-01T13:02:42;15.00;55.30
71994;DHT22;59861;50.268;8.648;2023-02-01T13:05:27;15.00;55.20
71994;DHT22;59861;50.268;8.648;2023-02-01T13:08:10;15.00;55.20
71994;DHT22;59861;50.268;8.648;2023-02-01T13:10:37;15.00;55.20
71994;DHT22;59861;50.268;8.648;2023-02-01T13:18:18;15.00;55.30
71994;DHT22;59861;50.268;8.648;2023-02-01T13:20:53;15.00;55.20
71994;DHT22;59861;50.268;8.648;2023-02-01T13:23:28;15.00;55.10
71994;DHT22;59861;50.268;8.648;2023-02-01T13:25:56;15.00;55.30
71994;DHT22;59861;50.268;8.648;2023-02-01T13:28:24;15.00;55.20
71994;DHT22;59861;50.268;8.648;2023-02-01T13:33:29;15.00;55.40
71994;DHT22;59861;50.268;8.648;2023-02-01T13:38:28;14.90;56.20
71994;DHT22;59861;50.268;8.648;2023-02-01T13:43:21;14.90;55.70
71994;DHT22;59861;50.268;8.648;2023-02-01T13:45:51;14.90;55.80
71994;DHT22;59861;50.268;8.648;2023-02-01T13:48:26;14.90;55.80
71994;DHT22;59861;50.268;8.648;2023-02-01T13:50:54;14.90;55.80
71994;DHT22;59861;50.268;8.648;2023-02-01T13:53:29;15.00;55.70
71994;DHT22;59861;50.268;8.648;2023-02-01T13:58:40;15.00;55.60
71994;DHT22;59861;50.268;8.648;2023-02-01T14:01:36;15.10;55.50
71994;DHT22;59861;50.268;8.648;2023-02-01T14:03:44;15.00;55.50
71994;DHT22;59861;50.268;8.648;2023-02-01T14:11:46;15.10;55.30
71994;DHT22;59861;50.268;8.648;2023-02-01T14:16:42;15.10;55.40
71994;DHT22;59861;50.268;8.648;2023-02-01T14:19:31;15.10;55.50
71994;DHT22;59861;50.268;8.648;2023-02-01T14:21:53;15.10;55.50
71994;DHT22;59861;50.268;8.648;2023-02-01T14:24:24;15.10;55.40
71994;DHT22;59861;50.268;8.648;2023-02-01T14:26:51;15.10;55.40
71994;DHT22;59861;50.268;8.648;2023-02-01T14:29:21;15.10;55.50
71994;DHT22;59861;50.268;8.648;2023-02-01T14:31:52;15.10;55.50
71994;DHT22;59861;50.268;8.648;2023-02-01T14:34:20;15.00;55.40
71994;DHT22;59861;50.268;8.648;2023-02-01T14:36:48;15.10;55.50
71994;DHT22;59861;50.268;8.648;2023-02-01T14:39:32;15.10;55.50
71994;DHT22;59861;50.268;8.648;2023-02-01T14:42:00;15.10;55.50
71994;DHT22;59861;50.268;8.648;2023-02-01T14:44:28;15.10;56.10
71994;DHT22;59861;50.268;8.648;2023-02-01T14:47:03;15.10;55.50
71994;DHT22;59861;50.268;8.648;2023-02-01T14:49:34;15.10;55.50
71994;DHT22;59861;50.268;8.648;2023-02-01T14:52:02;15.10;55.50
71994;DHT22;59861;50.268;8.648;2023-02-01T14:54:30;15.00;55.50
71994;DHT22;59861;50.268;8.648;2023-02-01T14:56:56;15.10;55.60
71994;DHT22;59861;50.268;8.648;2023-02-01T14:59:24;15.10;55.50
71994;DHT22;59861;50.268;8.648;2023-02-01T15:01:56;15.10;55.50
71994;DHT22;59861;50.268;8.648;2023-02-01T15:04:24;15.10;55.60
71994;DHT22;59861;50.268;8.648;2023-02-01T15:06:55;15.10;55.50
71994;DHT22;59861;50.268;8.648;2023-02-01T15:09:25;15.10;55.50
71994;DHT22;59861;50.268;8.648;2023-02-01T15:14:23;15.10;55.60
71994;DHT22;59861;50.268;8.648;2023-02-01T15:16:50;15.00;55.50
71994;DHT22;59861;50.268;8.648;2023-02-01T15:19:23;15.00;55.60
71994;DHT22;59861;50.268;8.648;2023-02-01T15:21:48;15.00;55.60
71994;DHT22;59861;50.268;8.648;2023-02-01T15:24:22;15.00;55.60
71994;DHT22;59861;50.268;8.648;2023-02-01T15:26:46;15.00;55.60
71994;DHT22;59861;50.268;8.648;2023-02-01T15:29:13;15.10;55.60
71994;DHT22;59861;50.268;8.648;2023-02-01T15:31:46;15.00;55.60
71994;DHT22;59861;50.268;8.648;2023-02-01T15:34:10;15.00;55.60
71994;DHT22;59861;50.268;8.648;2023-02-01T15:36:37;15.00;55.60
71994;DHT22;59861;50.268;8.648;2023-02-01T15:39:15;15.00;55.60
71994;DHT22;59861;50.268;8.648;2023-02-01T15:41:46;15.00;55.50
71994;DHT22;59861;50.268;8.648;2023-02-01T15:44:17;15.00;55.60
71994;DHT22;59861;50.268;8.648;2023-02-01T15:46:43;15.00;55.70
71994;DHT22;59861;50.268;8.648;2023-02-01T15:49:53;15.00;55.80
71994;DHT22;59861;50.268;8.648;2023-02-01T15:51:43;15.00;55.90
71994;DHT22;59861;50.268;8.648;2023-02-01T15:54:17;15.00;55.80
71994;DHT22;59861;50.268;8.648;2023-02-01T15:56:49;15.00;55.90
71994;DHT22;59861;50.268;8.648;2023-02-01T15:59:16;15.00;55.90
71994;DHT22;59861;50.268;8.648;2023-02-01T16:01:43;15.00;55.90
71994;DHT22;59861;50.268;8.648;2023-02-01T16:09:16;14.90;55.80
71994;DHT22;59861;50.268;8.648;2023-02-01T16:11:54;15.00;55.80
71994;DHT22;59861;50.268;8.648;2023-02-01T16:14:21;15.00;55.80
71994;DHT22;59861;50.268;8.648;2023-02-01T16:16:48;15.00;55.90
71994;DHT22;59861;50.268;8.648;2023-02-01T16:19:15;15.00;55.70
71994;DHT22;59861;50.268;8.648;2023-02-01T16:21:42;15.00;55.80
71994;DHT22;59861;50.268;8.648;2023-02-01T16:24:09;15.00;55.80
71994;DHT22;59861;50.268;8.648;2023-02-01T16:26:35;15.00;55.90
71994;DHT22;59861;50.268;8.648;2023-02-01T16:29:04;15.00;56.00
71994;DHT22;59861;50.268;8.648;2023-02-01T16:31:34;14.90;56.00
71994;DHT22;59861;50.268;8.648;2023-02-01T16:34:01;15.00;55.90
71994;DHT22;59861;50.268;8.648;2023-02-01T16:36:28;15.10;55.90
71994;DHT22;59861;50.268;8.648;2023-02-01T16:38:55;15.10;55.70
71994;DHT22;59861;50.268;8.648;2023-02-01T16:41:22;15.00;55.80
71994;DHT22;59861;50.268;8.648;2023-02-01T16:43:50;15.10;55.80
71994;DHT22;59861;50.268;8.648;2023-02-01T16:46:18;15.10;55.80
71994;DHT22;59861;50.268;8.648;2023-02-01T16:48:48;15.10;55.70
71994;DHT22;59861;50.268;8.648;2023-02-01T16:51:15;15.00;55.60
71994;DHT22;59861;50.268;8.648;2023-02-01T16:53:43;15.10;55.70
71994;DHT22;59861;50.268;8.648;2023-02-01T16:56:14;15.10;55.70
71994;DHT22;59861;50.268;8.648;2023-02-01T16:58:41;15.20;55.60
71994;DHT22;59861;50.268;8.648;2023-02-01T17:01:14;15.20;55.50
71994;DHT22;59861;50.268;8.648;2023-02-01T17:03:37;15.30;55.60
71994;DHT22;59861;50.268;8.648;2023-02-01T17:06:04;15.30;55.60
71994;DHT22;59861;50.268;8.648;2023-02-01T17:08:33;15.40;55.50
71994;DHT22;59861;50.268;8.648;2023-02-01T17:11:00;15.40;55.50
71994;DHT22;59861;50.268;8.648;2023-02-01T17:13:27;15.30;55.80
71994;DHT22;59861;50.268;8.648;2023-02-01T17:15:56;15.30;56.00
71994;DHT22;59861;50.268;8.648;2023-02-01T17:20:50;15.40;55.80
71994;DHT22;59861;50.268;8.648;2023-02-01T17:23:18;15.60;56.40
71994;DHT22;59861;50.268;8.648;2023-02-01T17:25:45;15.90;57.30